Time;durP1;ratioP1;P1;durP2;ratioP2;P2;SDS_P1;SDS_P2;PMS_P1;PMS_P2;Temp;Humidity;BMP_temperature;BMP_pressure;BME280_temperature;BME280_humidity;BME280_pressure;Samples;Min_cycle;Max_cycle;Signal;HPM_P1;HPM_P2
2023/12/16 00:01:49;;;;;;;31.13;11.83;;;;;;;;;;5013391;28;20954;-39
2023/12/16 00:04:35;;;;;;;21.40;12.47;;;;;;;;;;5013352;28;20499;-39
2023/12/16 00:07:04;;;;;;;36.17;14.07;;;;;;;;;;5012436;28;20436;-42
2023/12/16 00:09:31;;;;;;;28.53;12.80;;;;;;;;;;5013231;28;20511;-46
2023/12/16 00:11:59;;;;;;;26.20;13.73;;;;;;;;;;5013236;28;20796;-40
2023/12/16 00:14:27;;;;;;;32.03;13.30;;;;;;;;;;5013226;28;20472;-43
2023/12/16 00:16:55;;;;;;;39.13;13.77;;;;;;;;;;5012651;28;20457;-42
2023/12/16 00:19:22;;;;;;;31.97;12.60;;;;;;;;;;5012017;28;20437;-40
2023/12/16 00:21:50;;;;;;;36.53;14.47;;;;;;;;;;5013081;28;20521;-39
2023/12/16 00:24:19;;;;;;;31.20;13.50;;;;;;;;;;5012996;28;20437;-39
2023/12/16 00:26:46;;;;;;;27.13;13.60;;;;;;;;;;5012065;28;21294;-39
2023/12/16 00:29:14;;;;;;;30.97;14.37;;;;;;;;;;5013264;28;20448;-39
2023/12/16 00:31:44;;;;;;;35.47;14.40;;;;;;;;;;5012676;28;20429;-40
2023/12/16 00:34:12;;;;;;;38.30;14.30;;;;;;;;;;5012882;28;20441;-42
2023/12/16 00:36:41;;;;;;;32.47;13.37;;;;;;;;;;5012528;28;20457;-39
2023/12/16 00:39:09;;;;;;;22.80;13.90;;;;;;;;;;5012348;28;20453;-42
2023/12/16 00:41:38;;;;;;;21.70;13.27;;;;;;;;;;5012615;28;20441;-42
2023/12/16 00:44:06;;;;;;;27.83;13.00;;;;;;;;;;5012876;28;20507;-44
2023/12/16 00:46:34;;;;;;;30.60;12.73;;;;;;;;;;5012172;28;20536;-41
2023/12/16 00:49:02;;;;;;;23.87;12.90;;;;;;;;;;5012062;28;20485;-39
2023/12/16 00:51:30;;;;;;;31.20;12.67;;;;;;;;;;5012249;28;20560;-39
2023/12/16 00:53:57;;;;;;;42.43;14.00;;;;;;;;;;5012601;28;20468;-40
2023/12/16 00:56:25;;;;;;;21.03;12.00;;;;;;;;;;5012192;28;20464;-38
2023/12/16 00:58:56;;;;;;;38.53;14.97;;;;;;;;;;5011976;28;20499;-42
2023/12/16 01:01:24;;;;;;;39.10;14.97;;;;;;;;;;5012351;28;20433;-39
2023/12/16 01:03:51;;;;;;;28.70;12.10;;;;;;;;;;5012288;28;20536;-40
2023/12/16 01:06:19;;;;;;;23.47;12.37;;;;;;;;;;5011902;28;20544;-39
2023/12/16 01:08:46;;;;;;;33.17;11.83;;;;;;;;;;5011863;28;20461;-43
2023/12/16 01:11:14;;;;;;;31.10;12.50;;;;;;;;;;5012244;28;20472;-42
2023/12/16 01:13:42;;;;;;;33.63;11.90;;;;;;;;;;5012167;28;20519;-39
2023/12/16 01:16:11;;;;;;;31.43;13.37;;;;;;;;;;5011820;28;20511;-41
2023/12/16 01:18:38;;;;;;;37.63;12.30;;;;;;;;;;5011566;28;20465;-41
2023/12/16 01:21:06;;;;;;;22.97;11.87;;;;;;;;;;5012110;28;20440;-41
2023/12/16 01:23:34;;;;;;;30.23;13.33;;;;;;;;;;5011811;28;20945;-41
2023/12/16 01:26:03;;;;;;;29.97;13.10;;;;;;;;;;5011883;28;20457;-40
2023/12/16 01:28:31;;;;;;;25.60;12.73;;;;;;;;;;5011593;28;20461;-44
2023/12/16 01:30:58;;;;;;;33.37;13.70;;;;;;;;;;5011340;28;20507;-41
2023/12/16 01:33:27;;;;;;;31.20;12.73;;;;;;;;;;5011672;28;20459;-39
2023/12/16 01:35:55;;;;;;;26.17;12.63;;;;;;;;;;5011428;28;20460;-44
2023/12/16 01:38:22;;;;;;;33.40;13.57;;;;;;;;;;5011621;28;20496;-39
2023/12/16 01:40:50;;;;;;;24.43;13.23;;;;;;;;;;5011694;28;20908;-42
2023/12/16 01:43:17;;;;;;;30.67;14.23;;;;;;;;;;5011948;28;20433;-41
2023/12/16 01:45:46;;;;;;;28.57;12.90;;;;;;;;;;5011118;28;20937;-41
2023/12/16 01:48:14;;;;;;;27.27;12.67;;;;;;;;;;5011380;28;20461;-43
2023/12/16 01:50:43;;;;;;;27.77;12.87;;;;;;;;;;5011392;28;20468;-42
2023/12/16 01:53:11;;;;;;;32.60;17.00;;;;;;;;;;5011956;28;20459;-39
2023/12/16 01:55:38;;;;;;;26.30;13.03;;;;;;;;;;5011169;28;20503;-39
2023/12/16 01:58:06;;;;;;;34.00;13.00;;;;;;;;;;5011288;28;20457;-44
2023/12/16 02:00:34;;;;;;;28.97;13.97;;;;;;;;;;5011560;28;20951;-39
2023/12/16 02:03:01;;;;;;;23.20;13.30;;;;;;;;;;5011357;28;20976;-44
2023/12/16 02:05:29;;;;;;;28.43;13.23;;;;;;;;;;5011290;28;20436;-39
2023/12/16 02:07:58;;;;;;;22.63;12.00;;;;;;;;;;5011335;28;20461;-41
2023/12/16 02:10:26;;;;;;;33.30;12.67;;;;;;;;;;5011404;28;20472;-39
2023/12/16 02:12:53;;;;;;;28.90;11.87;;;;;;;;;;5003228;28;20433;-40
2023/12/16 02:15:21;;;;;;;28.47;11.77;;;;;;;;;;5011462;28;20465;-41
2023/12/16 02:17:48;;;;;;;30.50;12.80;;;;;;;;;;5011010;28;20488;-39
2023/12/16 02:20:16;;;;;;;39.40;12.10;;;;;;;;;;5011389;28;20945;-40
2023/12/16 02:22:46;;;;;;;43.10;12.23;;;;;;;;;;5011248;28;20976;-42
2023/12/16 02:25:15;;;;;;;29.77;12.70;;;;;;;;;;5011223;28;20441;-42
2023/12/16 02:27:43;;;;;;;45.73;12.30;;;;;;;;;;5010064;28;20527;-39
2023/12/16 02:30:10;;;;;;;28.13;11.90;;;;;;;;;;5011453;28;20491;-39
2023/12/16 02:32:38;;;;;;;35.43;14.33;;;;;;;;;;5011102;28;20564;-43
2023/12/16 02:35:06;;;;;;;28.70;13.43;;;;;;;;;;5011052;28;20864;-40
2023/12/16 02:37:34;;;;;;;32.80;14.40;;;;;;;;;;5010731;28;20548;-39
2023/12/16 02:40:02;;;;;;;42.33;15.23;;;;;;;;;;5011036;28;20920;-40
2023/12/16 02:42:31;;;;;;;40.83;15.10;;;;;;;;;;5012553;28;20813;-40
2023/12/16 02:44:59;;;;;;;27.47;14.17;;;;;;;;;;5014987;28;20523;-41
2023/12/16 02:47:26;;;;;;;25.23;14.30;;;;;;;;;;5014556;28;20475;-43
2023/12/16 02:49:54;;;;;;;28.07;14.97;;;;;;;;;;5014489;28;20443;-42
2023/12/16 02:52:22;;;;;;;34.37;14.43;;;;;;;;;;5014607;28;20845;-42
2023/12/16 02:54:49;;;;;;;30.63;16.00;;;;;;;;;;5014760;28;20436;-39
2023/12/16 02:57:17;;;;;;;29.40;14.43;;;;;;;;;;5014379;28;20465;-39
2023/12/16 02:59:46;;;;;;;42.10;14.57;;;;;;;;;;5014629;28;20433;-44
2023/12/16 03:02:13;;;;;;;39.57;13.70;;;;;;;;;;5014625;28;20467;-42
2023/12/16 03:04:41;;;;;;;24.70;13.70;;;;;;;;;;5014505;28;20524;-41
2023/12/16 03:07:09;;;;;;;21.90;12.40;;;;;;;;;;5013740;28;20511;-42
2023/12/16 03:09:36;;;;;;;26.27;13.13;;;;;;;;;;5014550;28;20437;-41
2023/12/16 03:12:04;;;;;;;40.93;13.63;;;;;;;;;;5014412;28;20508;-39
2023/12/16 03:14:34;;;;;;;23.03;13.83;;;;;;;;;;5014411;28;20848;-40
2023/12/16 03:17:03;;;;;;;27.63;13.30;;;;;;;;;;5013446;28;20461;-40
2023/12/16 03:19:31;;;;;;;39.63;14.17;;;;;;;;;;5013981;28;20519;-40
2023/12/16 03:21:59;;;;;;;26.37;13.03;;;;;;;;;;5014280;28;20793;-41
2023/12/16 03:24:27;;;;;;;21.10;12.23;;;;;;;;;;5011513;28;20513;-41
2023/12/16 03:26:54;;;;;;;23.20;12.40;;;;;;;;;;5010570;28;20492;-42
2023/12/16 03:29:22;;;;;;;32.10;12.23;;;;;;;;;;5011682;28;20445;-42
2023/12/16 03:31:49;;;;;;;23.83;13.57;;;;;;;;;;5012912;28;20472;-39
2023/12/16 03:34:18;;;;;;;28.33;13.23;;;;;;;;;;5013627;28;20548;-39
2023/12/16 03:36:46;;;;;;;29.03;12.67;;;;;;;;;;5013289;28;20519;-40
2023/12/16 03:39:13;;;;;;;33.67;13.30;;;;;;;;;;5013964;28;20433;-41
2023/12/16 03:41:41;;;;;;;26.67;12.80;;;;;;;;;;5013640;28;20440;-39
2023/12/16 03:44:08;;;;;;;27.17;12.97;;;;;;;;;;5013605;28;20975;-40
2023/12/16 03:46:36;;;;;;;31.03;13.63;;;;;;;;;;5013095;28;20492;-41
2023/12/16 03:49:03;;;;;;;27.40;12.23;;;;;;;;;;5012994;28;20457;-39
2023/12/16 03:51:32;;;;;;;23.27;12.20;;;;;;;;;;5013370;28;20476;-39
2023/12/16 03:54:00;;;;;;;23.20;12.30;;;;;;;;;;5005264;28;20929;-41
2023/12/16 03:56:27;;;;;;;23.63;12.67;;;;;;;;;;5013165;28;20465;-40
2023/12/16 03:58:55;;;;;;;28.90;12.93;;;;;;;;;;5012740;28;20485;-39
2023/12/16 04:01:23;;;;;;;26.93;12.73;;;;;;;;;;5013248;28;21153;-40
2023/12/16 04:03:51;;;;;;;33.23;11.63;;;;;;;;;;5013172;28;20441;-43
2023/12/16 04:06:18;;;;;;;26.83;12.23;;;;;;;;;;5013113;28;20453;-40
2023/12/16 04:08:47;;;;;;;32.40;12.60;;;;;;;;;;5012574;28;20467;-41
2023/12/16 04:11:15;;;;;;;32.80;12.37;;;;;;;;;;5013045;28;20457;-39
2023/12/16 04:13:42;;;;;;;14.53;10.70;;;;;;;;;;5012944;28;20947;-40
2023/12/16 04:16:10;;;;;;;26.87;12.00;;;;;;;;;;5012812;28;20457;-39
2023/12/16 04:18:37;;;;;;;33.07;12.67;;;;;;;;;;5012565;28;20461;-39
2023/12/16 04:21:05;;;;;;;24.53;10.70;;;;;;;;;;5012956;28;20437;-39
2023/12/16 04:23:32;;;;;;;18.73;9.70;;;;;;;;;;5013063;28;20464;-39
2023/12/16 04:26:01;;;;;;;20.63;10.37;;;;;;;;;;5012326;28;20536;-40
2023/12/16 04:28:33;;;;;;;18.33;11.10;;;;;;;;;;5012480;28;20456;-40
2023/12/16 04:31:00;;;;;;;17.00;11.17;;;;;;;;;;5012787;28;20818;-39
2023/12/16 04:33:28;;;;;;;23.73;11.10;;;;;;;;;;5012739;28;20563;-39
2023/12/16 04:35:56;;;;;;;19.80;11.07;;;;;;;;;;5012303;28;20503;-39
2023/12/16 04:38:23;;;;;;;30.17;11.47;;;;;;;;;;5012391;28;20461;-39
2023/12/16 04:40:51;;;;;;;20.10;11.20;;;;;;;;;;5012286;28;20429;-42
2023/12/16 04:43:20;;;;;;;12.00;9.40;;;;;;;;;;5012733;28;20437;-41
2023/12/16 04:45:48;;;;;;;18.37;11.53;;;;;;;;;;5012138;28;20437;-40
2023/12/16 04:48:15;;;;;;;20.23;10.90;;;;;;;;;;5012148;28;20555;-39
2023/12/16 04:50:43;;;;;;;17.07;10.37;;;;;;;;;;5012287;28;20433;-39
2023/12/16 04:53:11;;;;;;;17.53;10.50;;;;;;;;;;5012295;28;20552;-40
2023/12/16 04:55:38;;;;;;;22.07;11.20;;;;;;;;;;5012305;28;20816;-39
2023/12/16 04:58:06;;;;;;;19.57;11.87;;;;;;;;;;5011906;28;20495;-39
2023/12/16 05:00:35;;;;;;;12.83;11.50;;;;;;;;;;5012518;28;20440;-39
2023/12/16 05:03:03;;;;;;;21.80;11.40;;;;;;;;;;5012160;28;20885;-39
2023/12/16 05:05:31;;;;;;;14.83;10.93;;;;;;;;;;5011394;28;20448;-40
2023/12/16 05:07:58;;;;;;;20.07;11.70;;;;;;;;;;5011535;28;20500;-39
2023/12/16 05:10:26;;;;;;;27.47;12.57;;;;;;;;;;5012197;28;20909;-39
2023/12/16 05:12:53;;;;;;;16.47;11.70;;;;;;;;;;5012098;28;20988;-40
2023/12/16 05:15:21;;;;;;;19.27;11.70;;;;;;;;;;5011924;28;20493;-39
2023/12/16 05:17:50;;;;;;;13.40;11.47;;;;;;;;;;5011302;28;20548;-40
2023/12/16 05:20:17;;;;;;;19.50;11.60;;;;;;;;;;5012069;28;20497;-40
2023/12/16 05:22:45;;;;;;;13.93;11.37;;;;;;;;;;5011972;28;20870;-39
2023/12/16 05:25:12;;;;;;;21.43;11.87;;;;;;;;;;5011644;28;20504;-39
2023/12/16 05:27:40;;;;;;;16.43;12.47;;;;;;;;;;5011451;28;20469;-40
2023/12/16 05:30:08;;;;;;;21.00;10.67;;;;;;;;;;5012037;28;20464;-39
2023/12/16 05:32:37;;;;;;;20.40;11.67;;;;;;;;;;5011786;28;20469;-41
2023/12/16 05:35:07;;;;;;;27.97;11.93;;;;;;;;;;5011441;28;20444;-40
2023/12/16 05:37:35;;;;;;;16.97;11.80;;;;;;;;;;5015979;28;20469;-39
2023/12/16 05:40:03;;;;;;;19.23;10.83;;;;;;;;;;5016959;28;20432;-38
2023/12/16 05:42:31;;;;;;;26.73;11.67;;;;;;;;;;5017007;28;20441;-39
2023/12/16 05:44:58;;;;;;;18.00;10.50;;;;;;;;;;5017016;28;20433;-37
2023/12/16 05:47:26;;;;;;;15.67;9.93;;;;;;;;;;5016552;28;21000;-38
2023/12/16 05:49:53;;;;;;;18.97;10.67;;;;;;;;;;5017004;28;20472;-38
2023/12/16 05:52:22;;;;;;;19.30;10.73;;;;;;;;;;5017001;28;20437;-39
2023/12/16 05:54:49;;;;;;;19.53;11.17;;;;;;;;;;5016410;28;20429;-38
2023/12/16 05:57:17;;;;;;;16.70;11.57;;;;;;;;;;5016935;28;20465;-39
2023/12/16 05:59:44;;;;;;;24.17;10.40;;;;;;;;;;5017196;28;20457;-38
2023/12/16 06:02:12;;;;;;;20.77;10.90;;;;;;;;;;5017364;28;20933;-38
2023/12/16 06:04:39;;;;;;;18.23;11.43;;;;;;;;;;5018177;28;20444;-42
2023/12/16 06:07:07;;;;;;;24.63;13.07;;;;;;;;;;5011115;28;20520;-39
2023/12/16 06:09:36;;;;;;;27.67;12.80;;;;;;;;;;5019496;28;20445;-41
2023/12/16 06:12:04;;;;;;;37.03;11.87;;;;;;;;;;5019516;28;20472;-38
2023/12/16 06:14:32;;;;;;;19.23;13.03;;;;;;;;;;5019179;28;20535;-39
2023/12/16 06:16:59;;;;;;;25.00;12.30;;;;;;;;;;5020266;28;20459;-40
2023/12/16 06:19:27;;;;;;;28.90;12.80;;;;;;;;;;5022683;28;20524;-39
2023/12/16 06:21:55;;;;;;;23.30;11.60;;;;;;;;;;5022652;28;20952;-38
2023/12/16 06:24:23;;;;;;;21.07;11.00;;;;;;;;;;5022305;28;20433;-39
2023/12/16 06:26:52;;;;;;;23.20;11.77;;;;;;;;;;5021627;28;20457;-39
2023/12/16 06:29:19;;;;;;;24.10;12.43;;;;;;;;;;5021940;28;20437;-43
2023/12/16 06:31:47;;;;;;;25.77;10.90;;;;;;;;;;5021765;28;20442;-38
2023/12/16 06:34:16;;;;;;;22.33;12.17;;;;;;;;;;5021256;28;20476;-39
2023/12/16 06:36:44;;;;;;;23.87;11.23;;;;;;;;;;5021344;28;20461;-38
2023/12/16 06:39:11;;;;;;;23.77;12.37;;;;;;;;;;5021933;28;20921;-41
2023/12/16 06:41:39;;;;;;;26.30;12.70;;;;;;;;;;5021844;28;20929;-41
2023/12/16 06:44:08;;;;;;;15.00;10.93;;;;;;;;;;5021019;28;20426;-38
2023/12/16 06:46:35;;;;;;;22.10;12.50;;;;;;;;;;5021175;28;20487;-41
2023/12/16 06:49:03;;;;;;;21.57;12.73;;;;;;;;;;5020606;28;20456;-41
2023/12/16 06:51:31;;;;;;;19.93;13.47;;;;;;;;;;5020921;28;20524;-39
2023/12/16 06:53:58;;;;;;;31.33;13.50;;;;;;;;;;5020956;28;20538;-41
2023/12/16 06:56:26;;;;;;;28.90;13.00;;;;;;;;;;5020312;28;20560;-38
2023/12/16 06:58:53;;;;;;;18.67;14.33;;;;;;;;;;5019520;28;20461;-38
2023/12/16 07:01:23;;;;;;;20.70;14.20;;;;;;;;;;5020194;28;20433;-40
2023/12/16 07:03:52;;;;;;;23.40;12.83;;;;;;;;;;5020143;28;20429;-41
2023/12/16 07:06:20;;;;;;;24.50;13.23;;;;;;;;;;5019484;28;20480;-39
2023/12/16 07:08:47;;;;;;;21.93;13.67;;;;;;;;;;5019367;28;20465;-38
2023/12/16 07:11:16;;;;;;;19.50;12.57;;;;;;;;;;5019059;28;20509;-38
2023/12/16 07:13:44;;;;;;;25.60;12.63;;;;;;;;;;5019188;28;20479;-37
2023/12/16 07:16:14;;;;;;;21.13;12.67;;;;;;;;;;5019028;28;20456;-39
2023/12/16 07:18:43;;;;;;;14.37;12.73;;;;;;;;;;5019035;28;20464;-38
2023/12/16 07:21:11;;;;;;;20.40;13.90;;;;;;;;;;5019293;28;20436;-39
2023/12/16 07:23:38;;;;;;;21.73;12.60;;;;;;;;;;5019601;28;20457;-38
2023/12/16 07:26:06;;;;;;;21.27;13.07;;;;;;;;;;5019142;28;20532;-38
2023/12/16 07:28:34;;;;;;;31.70;12.23;;;;;;;;;;5018462;28;20535;-38
2023/12/16 07:31:01;;;;;;;17.73;12.17;;;;;;;;;;5018864;28;20430;-39
2023/12/16 07:33:29;;;;;;;20.07;14.10;;;;;;;;;;5018810;28;20476;-38
2023/12/16 07:35:58;;;;;;;21.40;12.37;;;;;;;;;;5018545;28;20468;-40
2023/12/16 07:38:26;;;;;;;15.40;12.83;;;;;;;;;;5018955;28;20992;-38
2023/12/16 07:40:53;;;;;;;22.57;13.17;;;;;;;;;;5019449;28;20437;-39
2023/12/16 07:43:21;;;;;;;22.53;13.17;;;;;;;;;;5019222;28;20434;-38
2023/12/16 07:45:48;;;;;;;15.87;14.10;;;;;;;;;;5018801;28;20433;-39
2023/12/16 07:48:16;;;;;;;26.93;13.07;;;;;;;;;;5018837;28;20465;-38
2023/12/16 07:50:44;;;;;;;19.93;12.90;;;;;;;;;;5019688;28;20928;-39
2023/12/16 07:53:13;;;;;;;22.73;13.70;;;;;;;;;;5018315;28;20532;-41
2023/12/16 07:55:40;;;;;;;23.40;15.50;;;;;;;;;;5018575;28;20477;-39
2023/12/16 07:58:08;;;;;;;22.10;15.13;;;;;;;;;;5019664;28;20469;-38
2023/12/16 08:00:35;;;;;;;23.50;13.33;;;;;;;;;;5019613;28;20432;-39
2023/12/16 08:03:03;;;;;;;47.13;16.53;;;;;;;;;;5018546;28;20444;-39
2023/12/16 08:05:31;;;;;;;28.00;15.63;;;;;;;;;;5019025;28;20456;-38
2023/12/16 08:07:58;;;;;;;30.67;13.93;;;;;;;;;;5018118;28;20465;-38
2023/12/16 08:10:29;;;;;;;25.50;14.70;;;;;;;;;;5018691;28;20460;-39
2023/12/16 08:12:57;;;;;;;18.77;12.83;;;;;;;;;;5018439;28;20443;-38
2023/12/16 08:15:24;;;;;;;24.63;13.40;;;;;;;;;;5018584;28;20840;-38
2023/12/16 08:17:52;;;;;;;29.20;14.10;;;;;;;;;;5017567;28;20472;-38
2023/12/16 08:20:19;;;;;;;26.10;13.23;;;;;;;;;;5018755;28;20437;-38
2023/12/16 08:22:47;;;;;;;27.97;15.90;;;;;;;;;;5018898;28;20497;-38
2023/12/16 08:25:14;;;;;;;24.53;15.80;;;;;;;;;;5018241;28;20465;-38
2023/12/16 08:27:43;;;;;;;24.37;15.53;;;;;;;;;;5017667;28;21013;-38
2023/12/16 08:30:13;;;;;;;30.47;15.27;;;;;;;;;;5019166;28;20465;-40
2023/12/16 08:32:41;;;;;;;25.07;15.43;;;;;;;;;;5019727;28;20852;-39
2023/12/16 08:35:08;;;;;;;23.30;15.30;;;;;;;;;;5019129;28;20473;-39
2023/12/16 08:37:36;;;;;;;26.77;17.00;;;;;;;;;;5018769;28;20544;-38
2023/12/16 08:40:05;;;;;;;28.60;15.80;;;;;;;;;;5018851;28;20879;-39
2023/12/16 08:42:33;;;;;;;27.23;15.50;;;;;;;;;;5018938;28;20437;-41
2023/12/16 08:45:02;;;;;;;32.67;15.30;;;;;;;;;;5018174;28;20476;-38
2023/12/16 08:47:30;;;;;;;26.23;14.53;;;;;;;;;;5018083;28;20515;-38
2023/12/16 08:49:58;;;;;;;32.47;16.63;;;;;;;;;;5018275;28;20448;-41
2023/12/16 08:52:26;;;;;;;32.47;15.03;;;;;;;;;;5018407;28;20497;-38
2023/12/16 08:54:54;;;;;;;30.80;16.57;;;;;;;;;;5019440;28;20469;-40
2023/12/16 08:57:22;;;;;;;29.03;17.87;;;;;;;;;;5019017;28;20457;-39
2023/12/16 08:59:49;;;;;;;28.33;15.80;;;;;;;;;;5019128;28;20510;-38
2023/12/16 09:02:18;;;;;;;24.93;16.33;;;;;;;;;;5010857;28;20433;-40
2023/12/16 09:04:46;;;;;;;38.83;17.00;;;;;;;;;;5018394;28;20516;-38
2023/12/16 09:07:13;;;;;;;40.37;19.00;;;;;;;;;;5017133;28;20892;-39
2023/12/16 09:09:41;;;;;;;29.87;18.43;;;;;;;;;;5018538;28;20501;-38
2023/12/16 09:12:09;;;;;;;34.60;17.50;;;;;;;;;;5018792;28;20500;-37
2023/12/16 09:14:36;;;;;;;41.87;20.03;;;;;;;;;;5018912;28;20500;-38
2023/12/16 09:17:04;;;;;;;42.57;20.60;;;;;;;;;;5016811;28;20552;-38
2023/12/16 09:19:33;;;;;;;41.20;20.60;;;;;;;;;;5018543;28;20445;-38
2023/12/16 09:22:00;;;;;;;43.90;20.83;;;;;;;;;;5017922;28;20460;-39
2023/12/16 09:24:28;;;;;;;41.63;20.00;;;;;;;;;;5019097;28;20461;-39
2023/12/16 09:26:55;;;;;;;37.40;21.77;;;;;;;;;;5017495;28;20961;-38
2023/12/16 09:29:23;;;;;;;37.07;20.53;;;;;;;;;;5018385;28;20430;-39
2023/12/16 09:31:54;;;;;;;52.23;23.03;;;;;;;;;;5018999;28;20425;-38
2023/12/16 09:34:22;;;;;;;43.23;22.67;;;;;;;;;;5017154;28;20445;-38
2023/12/16 09:36:51;;;;;;;42.73;21.03;;;;;;;;;;5017383;28;20813;-39
2023/12/16 09:39:19;;;;;;;44.00;23.33;;;;;;;;;;5018583;28;20946;-39
2023/12/16 09:41:48;;;;;;;46.63;24.63;;;;;;;;;;5017795;28;20486;-38
2023/12/16 09:44:18;;;;;;;71.43;27.37;;;;;;;;;;5018313;28;20853;-38
2023/12/16 09:46:46;;;;;;;46.97;26.17;;;;;;;;;;5017922;28;20536;-38
2023/12/16 09:49:14;;;;;;;54.23;24.63;;;;;;;;;;5018344;28;20437;-41
2023/12/16 09:51:42;;;;;;;53.00;25.30;;;;;;;;;;5017355;28;20437;-40
2023/12/16 09:54:11;;;;;;;57.60;25.90;;;;;;;;;;5018014;28;20459;-39
2023/12/16 09:56:39;;;;;;;67.23;25.03;;;;;;;;;;5017271;28;20507;-39
2023/12/16 09:59:07;;;;;;;53.63;24.33;;;;;;;;;;5017141;28;20841;-38
2023/12/16 10:01:35;;;;;;;54.90;24.20;;;;;;;;;;5018285;28;20856;-38
2023/12/16 10:04:03;;;;;;;48.40;23.47;;;;;;;;;;5018368;28;20433;-40
2023/12/16 10:06:31;;;;;;;57.40;27.03;;;;;;;;;;5018428;28;20481;-38
2023/12/16 10:08:58;;;;;;;54.27;26.77;;;;;;;;;;5017305;28;20841;-38
2023/12/16 10:11:28;;;;;;;59.20;25.63;;;;;;;;;;5016723;28;20440;-41
2023/12/16 10:13:57;;;;;;;46.63;25.60;;;;;;;;;;5017503;28;20444;-38
2023/12/16 10:16:25;;;;;;;41.97;23.60;;;;;;;;;;5017852;28;20483;-38
2023/12/16 10:18:53;;;;;;;57.77;24.70;;;;;;;;;;5017120;28;20496;-41
2023/12/16 10:21:21;;;;;;;41.47;23.60;;;;;;;;;;5018088;28;20487;-39
2023/12/16 10:23:52;;;;;;;44.90;24.57;;;;;;;;;;5016152;28;20852;-39
2023/12/16 10:26:20;;;;;;;51.70;24.97;;;;;;;;;;5017832;28;20495;-38
2023/12/16 10:28:49;;;;;;;56.50;25.33;;;;;;;;;;5017592;28;20485;-38
2023/12/16 10:31:18;;;;;;;60.40;27.07;;;;;;;;;;5017623;28;21158;-38
2023/12/16 10:33:46;;;;;;;57.90;27.73;;;;;;;;;;5018349;28;20437;-38
2023/12/16 10:36:14;;;;;;;46.37;26.00;;;;;;;;;;5017624;28;20481;-38
2023/12/16 10:38:41;;;;;;;46.37;27.20;;;;;;;;;;5016887;28;20457;-41
2023/12/16 10:41:09;;;;;;;56.00;28.77;;;;;;;;;;5018437;28;20437;-38
2023/12/16 10:43:38;;;;;;;48.53;26.53;;;;;;;;;;5017683;28;20959;-38
2023/12/16 10:46:07;;;;;;;52.97;27.63;;;;;;;;;;5018362;28;20845;-38
2023/12/16 10:48:37;;;;;;;54.70;27.30;;;;;;;;;;4993427;28;20465;-38
2023/12/16 10:51:05;;;;;;;53.90;26.50;;;;;;;;;;5018045;28;20849;-38
2023/12/16 10:53:37;;;;;;;53.83;26.10;;;;;;;;;;5019020;28;20852;-41
2023/12/16 10:56:10;;;;;;;71.80;29.47;;;;;;;;;;5017595;28;20477;-39
2023/12/16 10:58:42;;;;;;;61.40;28.50;;;;;;;;;;5017696;28;20461;-38
2023/12/16 11:01:15;;;;;;;58.07;28.13;;;;;;;;;;5017601;28;20440;-39
2023/12/16 11:03:43;;;;;;;60.37;26.40;;;;;;;;;;5019463;28;20434;-40
2023/12/16 11:06:13;;;;;;;60.80;27.47;;;;;;;;;;5021043;28;20453;-39
2023/12/16 11:08:41;;;;;;;49.70;23.93;;;;;;;;;;5021402;28;20520;-40
2023/12/16 11:11:09;;;;;;;65.70;27.53;;;;;;;;;;5021861;28;20452;-38
2023/12/16 11:13:37;;;;;;;57.43;26.30;;;;;;;;;;5021453;28;20809;-38
2023/12/16 11:16:08;;;;;;;54.47;27.20;;;;;;;;;;5021166;28;20481;-41
2023/12/16 11:18:37;;;;;;;62.87;27.57;;;;;;;;;;5021081;28;20544;-38
2023/12/16 11:21:07;;;;;;;47.70;25.23;;;;;;;;;;5020932;28;20444;-40
2023/12/16 11:23:44;;;;;;;79.40;29.30;;;;;;;;;;5020456;28;21012;-40
2023/12/16 11:26:11;;;;;;;58.70;25.73;;;;;;;;;;5020912;28;20453;-41
2023/12/16 11:28:39;;;;;;;66.97;28.37;;;;;;;;;;5020184;28;20480;-38
2023/12/16 11:31:06;;;;;;;63.70;30.27;;;;;;;;;;5020233;28;20499;-38
2023/12/16 11:33:45;;;;;;;75.87;31.90;;;;;;;;;;5020654;28;20432;-39
2023/12/16 11:36:14;;;;;;;75.70;30.40;;;;;;;;;;5019938;28;20477;-41
2023/12/16 11:38:47;;;;;;;74.40;31.90;;;;;;;;;;5013775;28;21010;-40
2023/12/16 11:41:34;;;;;;;71.23;32.03;;;;;;;;;;5012457;28;20441;-39
2023/12/16 11:44:01;;;;;;;72.10;33.73;;;;;;;;;;5014074;28;20455;-41
2023/12/16 11:46:32;;;;;;;69.17;32.40;;;;;;;;;;5014032;28;20489;-38
2023/12/16 11:49:03;;;;;;;70.30;30.80;;;;;;;;;;5013261;28;20457;-43
2023/12/16 11:51:34;;;;;;;68.83;31.40;;;;;;;;;;5013813;28;20437;-39
2023/12/16 11:54:03;;;;;;;50.97;30.00;;;;;;;;;;5013657;28;20559;-38
2023/12/16 11:56:31;;;;;;;47.93;26.53;;;;;;;;;;5013553;28;20472;-39
2023/12/16 11:58:59;;;;;;;40.57;25.70;;;;;;;;;;5013404;28;20856;-39
2023/12/16 12:01:27;;;;;;;36.20;22.20;;;;;;;;;;5013588;28;20467;-42
2023/12/16 12:03:55;;;;;;;41.63;23.53;;;;;;;;;;5013724;28;20441;-40
2023/12/16 12:06:25;;;;;;;38.33;25.30;;;;;;;;;;5012951;28;20872;-39
2023/12/16 12:08:53;;;;;;;61.30;26.47;;;;;;;;;;5013017;28;21222;-41
2023/12/16 12:11:21;;;;;;;43.33;24.03;;;;;;;;;;5013642;28;20437;-39
2023/12/16 12:13:50;;;;;;;42.10;24.23;;;;;;;;;;5013501;28;20434;-39
2023/12/16 12:16:17;;;;;;;51.53;23.60;;;;;;;;;;5013022;28;20480;-39
2023/12/16 12:18:45;;;;;;;44.07;24.87;;;;;;;;;;5013025;28;20461;-39
2023/12/16 12:21:12;;;;;;;34.70;23.17;;;;;;;;;;5013196;28;20436;-40
2023/12/16 12:23:42;;;;;;;33.60;21.97;;;;;;;;;;5013689;28;20781;-38
2023/12/16 12:26:10;;;;;;;45.20;22.83;;;;;;;;;;5012800;28;20554;-39
2023/12/16 12:28:38;;;;;;;37.03;22.50;;;;;;;;;;5013009;28;20472;-39
2023/12/16 12:31:06;;;;;;;34.20;23.67;;;;;;;;;;5013211;28;20437;-39
2023/12/16 12:33:35;;;;;;;45.97;24.90;;;;;;;;;;5011489;28;20433;-39
2023/12/16 12:36:03;;;;;;;65.00;27.27;;;;;;;;;;5012741;28;20484;-40
2023/12/16 12:38:32;;;;;;;57.73;28.30;;;;;;;;;;5012843;28;20476;-40
2023/12/16 12:41:06;;;;;;;57.10;28.13;;;;;;;;;;5013054;28;20441;-41
2023/12/16 12:43:35;;;;;;;53.80;28.80;;;;;;;;;;5012943;28;20441;-39
2023/12/16 12:46:10;;;;;;;58.20;28.23;;;;;;;;;;5012539;28;20876;-40
2023/12/16 12:48:38;;;;;;;59.43;27.20;;;;;;;;;;5012368;28;20491;-38
2023/12/16 12:51:07;;;;;;;48.43;26.60;;;;;;;;;;5012952;28;20465;-41
2023/12/16 12:53:35;;;;;;;52.17;28.00;;;;;;;;;;5012986;28;20433;-40
2023/12/16 12:56:05;;;;;;;55.67;25.40;;;;;;;;;;5012290;28;20988;-41
2023/12/16 12:58:32;;;;;;;63.27;23.60;;;;;;;;;;5004506;28;20822;-39
2023/12/16 13:01:00;;;;;;;57.77;24.33;;;;;;;;;;5012858;28;20433;-39
2023/12/16 13:03:29;;;;;;;56.17;24.73;;;;;;;;;;5012767;28;20521;-40
2023/12/16 13:05:57;;;;;;;43.43;21.37;;;;;;;;;;5012062;28;20467;-39
2023/12/16 13:08:29;;;;;;;53.50;22.83;;;;;;;;;;5011892;28;20457;-39
2023/12/16 13:10:57;;;;;;;43.73;21.70;;;;;;;;;;5012281;28;20437;-39
2023/12/16 13:13:26;;;;;;;55.33;21.47;;;;;;;;;;5012131;28;20526;-38
2023/12/16 13:15:53;;;;;;;61.60;22.03;;;;;;;;;;5012189;28;20485;-38
2023/12/16 13:18:24;;;;;;;47.27;21.30;;;;;;;;;;5011594;28;20472;-39
2023/12/16 13:20:54;;;;;;;44.43;21.47;;;;;;;;;;5011980;28;20437;-39
2023/12/16 13:23:22;;;;;;;50.97;21.57;;;;;;;;;;5012193;28;20437;-39
2023/12/16 13:25:50;;;;;;;52.43;22.70;;;;;;;;;;5011335;28;20524;-39
2023/12/16 13:28:18;;;;;;;50.07;21.30;;;;;;;;;;5011949;28;20465;-40
2023/12/16 13:30:48;;;;;;;40.63;20.40;;;;;;;;;;5011970;28;20437;-40
2023/12/16 13:33:16;;;;;;;48.40;21.00;;;;;;;;;;5011963;28;20509;-39
2023/12/16 13:35:46;;;;;;;42.67;20.80;;;;;;;;;;5011902;28;20512;-38
2023/12/16 13:38:13;;;;;;;41.00;22.30;;;;;;;;;;5011285;28;20483;-38
2023/12/16 13:40:41;;;;;;;48.80;19.23;;;;;;;;;;5011973;28;20448;-41
2023/12/16 13:43:18;;;;;;;53.07;20.00;;;;;;;;;;5012013;28;20441;-39
2023/12/16 13:45:47;;;;;;;44.13;21.43;;;;;;;;;;5011736;28;20444;-40
2023/12/16 13:48:15;;;;;;;33.77;18.20;;;;;;;;;;5011501;28;20824;-39
2023/12/16 13:50:43;;;;;;;46.43;18.83;;;;;;;;;;5009842;28;20495;-39
2023/12/16 13:53:11;;;;;;;40.77;20.20;;;;;;;;;;5011811;28;20444;-38
2023/12/16 13:55:38;;;;;;;42.60;20.73;;;;;;;;;;5011581;28;20449;-39
2023/12/16 13:58:06;;;;;;;36.00;18.03;;;;;;;;;;5011543;28;20892;-39
2023/12/16 14:00:34;;;;;;;39.63;18.83;;;;;;;;;;5011881;28;20475;-41
2023/12/16 14:03:03;;;;;;;48.63;19.30;;;;;;;;;;5011820;28;20433;-40
2023/12/16 14:05:31;;;;;;;36.97;18.67;;;;;;;;;;5011411;28;20438;-39
2023/12/16 14:07:59;;;;;;;36.10;19.10;;;;;;;;;;5011733;28;20429;-38
2023/12/16 14:10:27;;;;;;;31.57;18.70;;;;;;;;;;5011888;28;20441;-39
2023/12/16 14:12:54;;;;;;;38.60;18.67;;;;;;;;;;5011763;28;20809;-40
2023/12/16 14:15:22;;;;;;;32.37;17.00;;;;;;;;;;5011365;28;20859;-42
2023/12/16 14:17:50;;;;;;;23.20;14.47;;;;;;;;;;5010885;28;20472;-39
2023/12/16 14:20:19;;;;;;;28.33;16.43;;;;;;;;;;5011491;28;20494;-39
2023/12/16 14:22:49;;;;;;;28.27;16.40;;;;;;;;;;5011925;28;20441;-40